Pagrindinis puslapis
METAR-TAF:

METAR-TAF

Oro uostai :

Point Hope, Aliaska, Jungtinės Amerikos Valstijos

platuma: 68-21N, ilguma: 166-48W, Aukštis: 4 m

Dabartinis oras

Ataskaita buvo paskelbta 32 minutes, ne 08:56 UTC
Vėjas 23 kt iš Šiaurės Rytų su gūsio iki 26 kt
Temperatūra 6°C
Drėgmė 75%
Slėgis 1012 hPa
Matomumas: 16.1 km
Apsiniaukę ne aukštis 2100 ft

METAR: PAPO 160856Z AUTO 04023G26KT 10SM OVC021 06/02 A2988 RMK AO2 PK WND 05031/0757 SLP119 T00560022 401000056 51020

Laikas: 01:28 (09:28 UTC)


TAF: trūkstamas

Orai ataskaitas ir orų prognozės (METAR, TAF).

turimą stotys yra geltonos ir raudonos taškus žemėlapyje.

Perkelti pele per norėdami pamatyti stoties vardą.

Tada spustelėkite, norėdami matyti oro stebėjimo ir prognozės.

Norėdami pakeisti žemėlapį: spustelėkite ant žalios mygtukų su juodo kryžiaus žemyn,; žalią mygtuką su brūkšneliu, jei norite nutolinti; arba žalių rodyklių gretimoms žemėlapius.


METAR-TAF: